Flight Track Log - Related Links

Times and Time Zones

All times are in EDT time to prevent confusion due to time zone crossing. See the N822BB flight status page for this flight to view local times or setup timezone preferences in your user account.

Time Position Orientation Groundspeed Altitude Reporting Facility
EDT Latitude Longitude Course Direction KTS MPH feet Rate Location/Type
Fri 05:34:07 PM 41.1333 -73.1000 106° East 127 146 1,800  Level New York TRACON
Fri 05:35:13 PM 41.1333 -73.0500 90° East 130 150 2,900 600 Climbing New York TRACON
Fri 05:36:07 PM 41.1167 -73.0000 114° Southeast 159 183 3,000 53 Climbing New York TRACON
Fri 05:37:07 PM 41.1167 -72.9333 90° East 178 205 3,000  Level New York TRACON
Fri 05:38:07 PM 41.1000 -72.8833 114° Southeast 179 206 3,000  Level New York TRACON
Fri 05:39:00 PM 41.1159 -72.9191 106° East  Level Estimated
Fri 05:39:13 PM 41.0833 -72.8167 108° East 180 207 3,000  Level New York TRACON
Fri 05:40:07 PM 41.0667 -72.7500 108° East 178 205 3,000  Level New York TRACON
Fri 05:41:07 PM 41.0333 -72.7000 131° Southeast 177 204 3,000  Level New York TRACON
Fri 05:42:07 PM 41.0167 -72.6333 108° East 174 200 3,000  Level New York TRACON
Fri 05:43:07 PM 41.0000 -72.5833 114° Southeast 177 204 3,000  Level New York TRACON
Fri 05:44:07 PM 40.9833 -72.5167 108° East 186 214 3,000  Level New York TRACON
Fri 05:45:07 PM 40.9667 -72.4667 114° Southeast 176 203 3,000  Level New York TRACON
Fri 05:46:07 PM 40.9500 -72.4000 108° East 175 201 3,000  Level New York TRACON
Fri 05:47:07 PM 40.9333 -72.3333 108° East 175 201 3,000  Level New York TRACON
Fri 05:48:07 PM 40.9167 -72.2667 108° East 179 206 3,000  Level New York TRACON
Fri 05:49:07 PM 40.9167 -72.2167 90° East 176 203 3,000  Level New York TRACON
Fri 05:50:07 PM 40.9000 -72.1500 108° East 169 194 3,000  Level New York TRACON
Fri 05:51:07 PM 40.9000 -72.0833 90° East 165 190 3,000  Level New York TRACON
Fri 05:52:07 PM 40.9000 -72.0333 90° East 167 192 3,000  Level New York TRACON
Fri 05:53:07 PM 40.9333 -72.0167 21° North 177 204 3,000 -300 Level New York TRACON
Fri 05:54:07 PM 40.9500 -72.0667 294° West 127 146 2,400 -600 Descending New York TRACON
Fri 05:59:00 PM 40.9632 -72.1589 281° West  Level FlightAware Approximate
Fri 06:06:00 PM 40.9500 -72.2500 252° West  Level FlightAware Approximate
Fri 06:07:00 PM 40.9594 -72.2517 252° West  Level Estimated
Fri 06:08:00 PM 40.9594 -72.2517 252° West  Level Estimated
Fri 06:09:00 PM 40.9594 -72.2517 252° West  Level Estimated
Fri 06:10:00 PM 40.9594 -72.2517 252° West  Level Estimated
Fri 06:11:00 PM 40.9594 -72.2517 252° West  Level Estimated

Login

Don't have an account? Register now (free) for customized features, flight alerts, and more!